New London, Wisconsin
Current Conditions -  °F | °C
As of 7:15 AM on Thursday 27 Nov 2014 (Local Time) from KPCZ Reporting Station
Overcast Overcast  
Wind Chill:   Ceiling: 4800
Heat Index: 18°   Visibility: 10mi
Dew Point: 11°   Wind: 7mph
Humidity: 75%   Direction: 320°NW
Pressure: 30.31"   Gusts: NA
Location:  44.39°N, 88.74°W
Report Text: KPCZ 271315Z AUTO 32006KT 10SM SCT041 OVC048 M08/M12 A3031 RMK AO2 T10801117
Loading
Personal Weather Stations






























Interactive Weather Map New forecast layout! Learn more

10-Day Weather Forecast

Advertisements
Track Severe Weather on mobile